Time;durP1;ratioP1;P1;durP2;ratioP2;P2;SDS_P1;SDS_P2;PMS_P1;PMS_P2;Temp;Humidity;BMP_temperature;BMP_pressure;BME280_temperature;BME280_humidity;BME280_pressure;Samples;Min_cycle;Max_cycle;Signal;HPM_P1;HPM_P2
2023/08/02 00:01:24;;;;;;;17.58;11.98;;;21.80;91.30;;;;;;5063720;28;20529;-71
2023/08/02 00:03:49;;;;;;;13.43;10.63;;;21.70;91.70;;;;;;5064526;28;20266;-71
2023/08/02 00:06:15;;;;;;;13.43;10.77;;;21.70;91.70;;;;;;5067037;28;20037;-71
2023/08/02 00:08:41;;;;;;;17.35;11.63;;;21.70;91.70;;;;;;5067279;28;20115;-71
2023/08/02 00:11:16;;;;;;;13.43;10.90;;;21.60;91.80;;;;;;5065946;28;20491;-71
2023/08/02 00:13:41;;;;;;;14.57;9.97;;;21.60;92.00;;;;;;5063810;28;20044;-71
2023/08/02 00:16:08;;;;;;;13.77;10.38;;;21.60;91.80;;;;;;5066081;28;20037;-71
2023/08/02 00:18:34;;;;;;;13.93;9.13;;;21.70;91.40;;;;;;5061562;28;20542;-70
2023/08/02 00:21:00;;;;;;;14.18;9.60;;;21.70;91.40;;;;;;5065459;28;20032;-70
2023/08/02 00:23:26;;;;;;;14.07;10.07;;;21.70;91.30;;;;;;5064923;28;20040;-72
2023/08/02 00:25:52;;;;;;;13.30;10.55;;;21.70;91.40;;;;;;5061861;28;20139;-71
2023/08/02 00:28:18;;;;;;;14.30;10.15;;;21.70;91.60;;;;;;5064460;28;20167;-71
2023/08/02 00:30:45;;;;;;;12.00;9.80;;;21.70;91.50;;;;;;5068703;28;20082;-71
2023/08/02 00:33:11;;;;;;;11.18;8.95;;;21.80;91.00;;;;;;5063715;28;20063;-70
2023/08/02 00:35:45;;;;;;;13.70;9.75;;;21.80;91.10;;;;;;5066884;28;20021;-70
2023/08/02 00:38:11;;;;;;;13.80;10.43;;;21.70;91.10;;;;;;5063181;28;20628;-71
2023/08/02 00:40:38;;;;;;;16.30;10.40;;;21.70;91.20;;;;;;5065070;28;20028;-70
2023/08/02 00:43:04;;;;;;;15.45;10.93;;;21.70;91.30;;;;;;5043765;28;20032;-71
2023/08/02 00:45:30;;;;;;;12.77;9.93;;;21.70;91.40;;;;;;5061680;28;20063;-70
2023/08/02 00:48:00;;;;;;;11.68;10.10;;;21.70;91.20;;;;;;5065632;28;20473;-71
2023/08/02 00:50:32;;;;;;;12.13;10.43;;;21.70;91.10;;;;;;5068437;28;20440;-71
2023/08/02 00:52:58;;;;;;;12.57;9.88;;;21.70;91.20;;;;;;5065706;28;20039;-70
2023/08/02 00:55:24;;;;;;;17.83;11.20;;;21.70;91.00;;;;;;5065934;28;20032;-72
2023/08/02 00:57:51;;;;;;;24.25;11.90;;;21.70;91.10;;;;;;5066795;28;20036;-72
2023/08/02 01:00:17;;;;;;;22.10;12.45;;;21.70;91.30;;;;;;5065800;28;20121;-72
2023/08/02 01:02:43;;;;;;;20.25;11.57;;;21.70;91.60;;;;;;5065399;28;20078;-72
2023/08/02 01:05:08;;;;;;;21.92;12.85;;;21.60;91.50;;;;;;5064453;28;20032;-72
2023/08/02 01:07:40;;;;;;;25.85;13.60;;;21.50;91.60;;;;;;5061098;28;20048;-72
2023/08/02 01:10:14;;;;;;;24.70;14.13;;;21.30;92.10;;;;;;5061384;28;20036;-72
2023/08/02 01:12:46;;;;;;;25.95;14.98;;;21.20;92.30;;;;;;5062973;28;20106;-72
2023/08/02 01:15:14;;;;;;;20.08;14.77;;;21.30;92.10;;;;;;5062748;28;20045;-72
2023/08/02 01:17:42;;;;;;;24.80;14.45;;;21.40;91.60;;;;;;5066068;28;20032;-72
2023/08/02 01:20:08;;;;;;;23.05;15.98;;;21.40;91.60;;;;;;5064756;28;20127;-72
2023/08/02 01:22:34;;;;;;;29.67;17.10;;;21.40;91.70;;;;;;5062604;28;20396;-72
2023/08/02 01:25:00;;;;;;;28.92;17.13;;;21.30;92.00;;;;;;5063126;28;20039;-72
2023/08/02 01:27:57;;;;;;;26.52;16.92;;;21.30;92.10;;;;;;5065030;28;20496;-72
2023/08/02 01:30:28;;;;;;;28.27;16.92;;;21.30;92.00;;;;;;5060826;28;20048;-71
2023/08/02 01:32:54;;;;;;;18.48;13.38;;;21.30;91.80;;;;;;5064260;28;20056;-71
2023/08/02 01:35:20;;;;;;;22.48;13.95;;;21.30;91.70;;;;;;5064141;28;20033;-72
2023/08/02 01:37:47;;;;;;;25.15;17.42;;;21.20;91.80;;;;;;5063404;28;20725;-71
2023/08/02 01:40:13;;;;;;;26.65;18.48;;;21.10;92.20;;;;;;5064662;28;20033;-71
2023/08/02 01:42:39;;;;;;;25.92;18.50;;;21.00;92.60;;;;;;5067790;28;20028;-71
2023/08/02 01:45:06;;;;;;;24.08;15.05;;;21.00;92.50;;;;;;5061520;28;20395;-71
2023/08/02 01:47:32;;;;;;;24.23;17.58;;;21.10;92.00;;;;;;5062902;28;20579;-71
2023/08/02 01:49:58;;;;;;;30.83;20.58;;;21.10;92.20;;;;;;5063205;28;20556;-71
2023/08/02 01:52:24;;;;;;;30.83;20.88;;;21.00;92.60;;;;;;5061989;28;20035;-72
2023/08/02 01:54:50;;;;;;;25.90;18.27;;;20.90;92.80;;;;;;5063739;28;20044;-71
2023/08/02 01:57:16;;;;;;;22.70;17.65;;;21.00;92.60;;;;;;5061943;28;20032;-71
2023/08/02 01:59:42;;;;;;;21.15;16.02;;;21.00;92.30;;;;;;5062231;28;20032;-71
2023/08/02 02:02:08;;;;;;;22.88;17.17;;;21.10;92.20;;;;;;5068244;28;20036;-71
2023/08/02 02:04:35;;;;;;;35.13;26.35;;;21.00;92.10;;;;;;5068112;28;20420;-71
2023/08/02 02:07:00;;;;;;;38.65;30.95;;;20.90;92.70;;;;;;5069119;28;20576;-71
2023/08/02 02:09:26;;;;;;;42.60;31.98;;;20.80;93.00;;;;;;5064526;28;20086;-71
2023/08/02 02:11:52;;;;;;;50.47;33.15;;;20.80;93.10;;;;;;5066487;28;20040;-71
2023/08/02 02:14:18;;;;;;;37.47;31.48;;;20.70;93.20;;;;;;5067885;28;20182;-71
2023/08/02 02:16:44;;;;;;;42.25;33.00;;;20.70;93.40;;;;;;5067600;28;20048;-71
2023/08/02 02:19:10;;;;;;;41.10;31.40;;;20.70;93.40;;;;;;5067493;28;20043;-70
2023/08/02 02:21:36;;;;;;;36.05;29.13;;;20.70;93.40;;;;;;5066125;28;20034;-71
2023/08/02 02:24:02;;;;;;;40.28;29.17;;;20.70;93.50;;;;;;5067656;28;20409;-70
2023/08/02 02:26:28;;;;;;;37.17;26.58;;;20.70;93.80;;;;;;5065972;28;20059;-71
2023/08/02 02:28:54;;;;;;;32.00;25.05;;;20.80;93.60;;;;;;5066360;28;20044;-71
2023/08/02 02:31:22;;;;;;;36.33;26.05;;;21.00;93.30;;;;;;5063868;28;20161;-71
2023/08/02 02:33:50;;;;;;;29.95;23.95;;;21.10;93.10;;;;;;5068890;28;20060;-70
2023/08/02 02:36:16;;;;;;;36.35;25.52;;;21.30;92.70;;;;;;5067394;28;20141;-71
2023/08/02 02:38:43;;;;;;;31.17;24.58;;;21.30;92.70;;;;;;5066638;28;20603;-70
2023/08/02 02:41:09;;;;;;;28.90;23.52;;;21.30;92.60;;;;;;5065458;28;20150;-71
2023/08/02 02:43:34;;;;;;;29.77;24.80;;;21.40;92.50;;;;;;5070286;28;20123;-71
2023/08/02 02:46:00;;;;;;;30.10;23.33;;;21.40;92.50;;;;;;5065529;28;20135;-72
2023/08/02 02:48:26;;;;;;;29.63;21.73;;;21.50;92.30;;;;;;5064366;28;20151;-72
2023/08/02 02:50:54;;;;;;;29.98;23.23;;;21.70;91.80;;;;;;5064773;28;20082;-71
2023/08/02 02:53:22;;;;;;;27.50;21.63;;;21.80;91.60;;;;;;5066904;28;20083;-71
2023/08/02 02:55:48;;;;;;;26.42;22.13;;;21.90;91.50;;;;;;5064183;28;20032;-71
2023/08/02 02:58:14;;;;;;;26.10;19.83;;;21.90;91.40;;;;;;5070573;28;20036;-72
2023/08/02 03:00:40;;;;;;;25.05;20.10;;;22.00;91.20;;;;;;5064742;28;20049;-71
2023/08/02 03:03:06;;;;;;;22.50;19.20;;;22.10;91.10;;;;;;5069636;28;20059;-72
2023/08/02 03:05:32;;;;;;;25.27;20.70;;;22.10;91.00;;;;;;5066240;28;20071;-71
2023/08/02 03:07:58;;;;;;;26.90;22.42;;;22.00;91.10;;;;;;5065216;28;20033;-71
2023/08/02 03:10:24;;;;;;;24.35;21.48;;;21.90;91.20;;;;;;5066749;28;20507;-72
2023/08/02 03:12:50;;;;;;;26.98;20.73;;;21.90;91.30;;;;;;5064809;28;20040;-72
2023/08/02 03:15:16;;;;;;;24.80;20.67;;;21.90;91.30;;;;;;5066693;28;20116;-71
2023/08/02 03:17:42;;;;;;;25.90;20.90;;;21.80;91.50;;;;;;5066789;28;20522;-71
2023/08/02 03:20:08;;;;;;;24.35;20.17;;;21.70;91.60;;;;;;5064355;28;20037;-75
2023/08/02 03:22:34;;;;;;;24.05;19.88;;;21.70;91.50;;;;;;5064714;28;20525;-75
2023/08/02 03:25:00;;;;;;;26.70;20.02;;;21.70;91.60;;;;;;5064233;28;20119;-80
2023/08/02 03:27:26;;;;;;;23.23;19.05;;;21.80;91.60;;;;;;5065369;28;20032;-79
2023/08/02 03:29:52;;;;;;;27.13;20.08;;;21.80;91.30;;;;;;5066040;28;20036;-79
2023/08/02 03:32:18;;;;;;;22.80;19.20;;;21.80;91.50;;;;;;5062843;28;20028;-78
2023/08/02 03:34:44;;;;;;;25.23;18.42;;;21.70;91.60;;;;;;5064947;28;20035;-78
2023/08/02 03:37:10;;;;;;;22.20;18.38;;;21.70;91.70;;;;;;5065685;28;20032;-82
2023/08/02 03:39:35;;;;;;;22.48;16.85;;;21.70;91.80;;;;;;5066899;28;20455;-77
2023/08/02 03:42:02;;;;;;;23.20;18.98;;;21.70;91.80;;;;;;5066004;28;20043;-80
2023/08/02 03:44:28;;;;;;;28.63;18.63;;;21.70;91.80;;;;;;5062525;28;20025;-77
2023/08/02 03:46:53;;;;;;;28.40;20.20;;;21.60;91.90;;;;;;5065339;28;20150;-82
2023/08/02 03:49:20;;;;;;;24.80;19.67;;;21.50;92.10;;;;;;5063997;28;20041;-82
2023/08/02 03:51:47;;;;;;;25.00;20.00;;;21.50;92.20;;;;;;5067181;28;20452;-77
2023/08/02 03:54:13;;;;;;;24.10;20.30;;;21.50;92.20;;;;;;5063349;28;20131;-78
2023/08/02 03:56:39;;;;;;;31.75;21.70;;;21.60;92.20;;;;;;5066708;28;20423;-78
2023/08/02 03:59:05;;;;;;;28.05;21.63;;;21.60;92.30;;;;;;5064615;28;20040;-79
2023/08/02 04:01:31;;;;;;;30.10;20.02;;;21.50;92.40;;;;;;5066687;28;20040;-74
2023/08/02 04:03:57;;;;;;;26.15;19.50;;;21.60;92.20;;;;;;5065325;28;20036;-74
2023/08/02 04:06:23;;;;;;;24.38;20.75;;;21.70;92.10;;;;;;5061503;28;20119;-74
2023/08/02 04:08:48;;;;;;;28.60;18.50;;;22.00;91.80;;;;;;5066453;28;20059;-73
2023/08/02 04:11:14;;;;;;;21.67;17.52;;;22.20;91.40;;;;;;5063786;28;20093;-73
2023/08/02 04:13:40;;;;;;;22.15;16.08;;;22.50;91.00;;;;;;5066314;28;20079;-73
2023/08/02 04:16:06;;;;;;;24.48;16.20;;;22.70;90.60;;;;;;5064913;28;20040;-73
2023/08/02 04:18:32;;;;;;;24.50;18.15;;;23.00;90.40;;;;;;5065672;28;20028;-73
2023/08/02 04:20:59;;;;;;;19.95;16.25;;;23.10;89.80;;;;;;5065806;28;20798;-73
2023/08/02 04:23:28;;;;;;;22.30;16.70;;;23.30;89.40;;;;;;5063339;28;20423;-73
2023/08/02 04:25:54;;;;;;;18.10;15.25;;;23.50;88.80;;;;;;5064306;28;20044;-74
2023/08/02 04:28:20;;;;;;;15.20;13.02;;;23.60;88.10;;;;;;5061172;28;20040;-73
2023/08/02 04:30:50;;;;;;;16.05;13.73;;;23.60;87.90;;;;;;5064284;28;20079;-73
2023/08/02 04:33:16;;;;;;;15.52;12.90;;;23.60;88.00;;;;;;5063500;28;20029;-73
2023/08/02 04:35:41;;;;;;;16.30;13.20;;;23.60;88.00;;;;;;5064982;28;20487;-73
2023/08/02 04:38:07;;;;;;;17.92;12.88;;;23.60;88.00;;;;;;5064541;28;20040;-73
2023/08/02 04:40:37;;;;;;;13.82;12.32;;;23.80;87.40;;;;;;5067103;28;20032;-73
2023/08/02 04:43:03;;;;;;;14.50;12.13;;;23.90;86.80;;;;;;5069259;28;20029;-73
2023/08/02 04:45:29;;;;;;;14.40;11.55;;;24.00;86.90;;;;;;5064186;28;20036;-73
2023/08/02 04:47:55;;;;;;;10.98;9.88;;;24.20;86.20;;;;;;5064054;28;20067;-73
2023/08/02 04:50:21;;;;;;;15.52;11.98;;;24.10;86.10;;;;;;5063237;28;20041;-74
2023/08/02 04:52:47;;;;;;;16.33;11.73;;;23.90;86.60;;;;;;5065619;28;20560;-73
2023/08/02 04:55:13;;;;;;;17.15;11.40;;;23.90;86.50;;;;;;5065349;28;20040;-73
2023/08/02 04:57:39;;;;;;;16.85;11.90;;;24.10;86.00;;;;;;5064340;28;20063;-73
2023/08/02 05:00:06;;;;;;;18.83;12.07;;;24.00;85.90;;;;;;5061447;28;20102;-73
2023/08/02 05:02:36;;;;;;;17.65;11.95;;;23.90;86.60;;;;;;5063568;28;20044;-73
2023/08/02 05:05:03;;;;;;;15.13;12.30;;;23.90;86.70;;;;;;5064174;28;20040;-73
2023/08/02 05:07:33;;;;;;;17.17;11.52;;;23.70;86.90;;;;;;5047579;28;20450;-74
2023/08/02 05:10:03;;;;;;;14.88;12.95;;;23.80;87.10;;;;;;5060998;28;20037;-74
2023/08/02 05:12:39;;;;;;;15.52;12.30;;;23.70;87.20;;;;;;5064731;28;20036;-73
2023/08/02 05:15:06;;;;;;;16.30;11.90;;;23.70;87.60;;;;;;5067328;28;20028;-73
2023/08/02 05:17:32;;;;;;;13.75;11.50;;;23.80;87.70;;;;;;5063297;28;20434;-74
2023/08/02 05:19:58;;;;;;;13.55;12.15;;;23.90;87.30;;;;;;5062967;28;20067;-73
2023/08/02 05:22:24;;;;;;;19.60;11.95;;;24.00;86.90;;;;;;5061723;28;20141;-73
2023/08/02 05:24:51;;;;;;;14.93;10.70;;;24.00;87.10;;;;;;5062983;28;20122;-73
2023/08/02 05:27:18;;;;;;;15.48;11.70;;;24.00;86.80;;;;;;5062753;28;20446;-73
2023/08/02 05:29:44;;;;;;;12.60;11.30;;;24.00;87.00;;;;;;5065053;28;20119;-73
2023/08/02 05:32:10;;;;;;;15.88;12.45;;;24.10;86.80;;;;;;5061075;28;20025;-73
2023/08/02 05:34:36;;;;;;;14.48;12.80;;;24.10;87.00;;;;;;5064480;28;20059;-72
2023/08/02 05:37:02;;;;;;;13.45;12.05;;;24.30;86.70;;;;;;5063875;28;20032;-73
2023/08/02 05:39:28;;;;;;;14.10;11.13;;;24.60;86.40;;;;;;5068346;28;20500;-73
2023/08/02 05:41:54;;;;;;;11.13;9.95;;;24.80;85.70;;;;;;5063453;28;20495;-73
2023/08/02 05:44:20;;;;;;;10.10;8.70;;;24.90;85.20;;;;;;5060547;28;20040;-72
2023/08/02 05:46:46;;;;;;;11.27;8.93;;;25.10;84.60;;;;;;5065207;28;20041;-72
2023/08/02 05:49:12;;;;;;;12.32;7.93;;;25.00;84.20;;;;;;5067114;28;20047;-73
2023/08/02 05:51:39;;;;;;;9.63;8.25;;;25.00;84.60;;;;;;5067143;28;20032;-73
2023/08/02 05:54:05;;;;;;;9.70;8.18;;;24.90;85.00;;;;;;5064606;28;20044;-73
2023/08/02 05:56:30;;;;;;;9.77;8.15;;;24.90;85.10;;;;;;5068650;28;20459;-73
2023/08/02 05:58:56;;;;;;;12.13;8.20;;;24.70;85.50;;;;;;5069951;28;20825;-74
2023/08/02 06:01:22;;;;;;;11.00;8.85;;;24.80;85.50;;;;;;5065824;28;20048;-73
2023/08/02 06:03:48;;;;;;;13.57;9.02;;;24.80;85.50;;;;;;5065799;28;20040;-73
2023/08/02 06:06:14;;;;;;;9.95;8.90;;;24.90;86.20;;;;;;5068843;28;20032;-73
2023/08/02 06:08:41;;;;;;;11.32;10.00;;;25.00;85.50;;;;;;5071489;28;20020;-73
2023/08/02 06:11:07;;;;;;;12.57;10.10;;;25.20;84.90;;;;;;5068853;28;20033;-73
2023/08/02 06:13:33;;;;;;;10.82;9.73;;;25.10;84.40;;;;;;5066597;28;20051;-72
2023/08/02 06:15:59;;;;;;;11.27;10.07;;;25.00;85.50;;;;;;5064449;28;20036;-72
2023/08/02 06:18:25;;;;;;;16.67;11.23;;;24.90;85.80;;;;;;5070400;28;20056;-72
2023/08/02 06:20:51;;;;;;;10.95;9.80;;;24.90;85.80;;;;;;5066525;28;20035;-72
2023/08/02 06:23:16;;;;;;;11.25;10.00;;;25.00;86.00;;;;;;5065389;28;20470;-72
2023/08/02 06:25:42;;;;;;;10.65;9.38;;;25.20;85.60;;;;;;5065966;28;20136;-73
2023/08/02 06:28:08;;;;;;;12.45;10.05;;;25.20;84.70;;;;;;5068366;28;20029;-73
2023/08/02 06:30:34;;;;;;;11.07;9.80;;;25.10;84.80;;;;;;5067501;28;20041;-74
2023/08/02 06:33:00;;;;;;;12.93;11.18;;;25.00;84.90;;;;;;5065974;28;20784;-72
2023/08/02 06:35:26;;;;;;;10.57;9.40;;;24.80;85.70;;;;;;5065788;28;20030;-74
2023/08/02 06:37:52;;;;;;;10.38;9.45;;;24.80;85.60;;;;;;5066188;28;20063;-74
2023/08/02 06:40:18;;;;;;;12.25;9.45;;;24.80;85.80;;;;;;5065103;28;20043;-74
2023/08/02 06:42:45;;;;;;;10.15;9.15;;;24.70;86.20;;;;;;5067232;28;20087;-73
2023/08/02 06:45:11;;;;;;;9.88;8.65;;;24.70;86.20;;;;;;5065217;28;20036;-73
2023/08/02 06:47:37;;;;;;;10.77;8.25;;;24.80;86.30;;;;;;5067911;28;20059;-71
2023/08/02 06:50:03;;;;;;;10.93;9.13;;;24.80;86.50;;;;;;5066272;28;20136;-71
2023/08/02 06:52:32;;;;;;;13.48;9.43;;;24.80;86.50;;;;;;5065299;28;20470;-73
2023/08/02 06:54:58;;;;;;;11.25;9.32;;;25.00;86.00;;;;;;5064118;28;20055;-73
2023/08/02 06:57:24;;;;;;;12.23;8.55;;;25.20;85.60;;;;;;5062730;28;20483;-74
2023/08/02 06:59:51;;;;;;;8.10;7.07;;;25.30;85.10;;;;;;5064996;28;20028;-75
2023/08/02 07:02:17;;;;;;;7.88;7.00;;;25.50;84.70;;;;;;5066949;28;20060;-72
2023/08/02 07:04:43;;;;;;;10.00;7.03;;;25.50;84.30;;;;;;5068261;28;20038;-74
2023/08/02 07:07:09;;;;;;;7.30;6.60;;;25.60;84.30;;;;;;5067771;28;20389;-74
2023/08/02 07:09:35;;;;;;;7.07;6.38;;;25.80;84.10;;;;;;5066854;28;20352;-74
2023/08/02 07:12:00;;;;;;;7.63;6.88;;;26.00;83.10;;;;;;5066884;28;20036;-73
2023/08/02 07:14:26;;;;;;;8.50;7.55;;;26.00;82.80;;;;;;5065314;28;20589;-73
2023/08/02 07:16:52;;;;;;;9.70;7.15;;;25.90;82.50;;;;;;5063383;28;20063;-73
2023/08/02 07:19:18;;;;;;;7.07;6.38;;;25.80;82.60;;;;;;5064015;28;20033;-71
2023/08/02 07:21:44;;;;;;;8.85;6.47;;;25.80;82.20;;;;;;5062526;28;20411;-72
2023/08/02 07:24:10;;;;;;;6.68;5.78;;;25.70;82.40;;;;;;5062717;28;20559;-73
2023/08/02 07:26:36;;;;;;;6.53;5.75;;;25.70;82.30;;;;;;5063506;28;20572;-73
2023/08/02 07:29:02;;;;;;;8.13;6.15;;;25.60;82.50;;;;;;5062195;28;20067;-73
2023/08/02 07:31:28;;;;;;;8.38;5.68;;;25.50;82.50;;;;;;5061916;28;20041;-72
2023/08/02 07:33:53;;;;;;;5.88;5.43;;;25.50;83.00;;;;;;5065184;28;20544;-72
2023/08/02 07:36:20;;;;;;;5.65;5.25;;;25.50;82.90;;;;;;5062089;28;20437;-73
2023/08/02 07:38:47;;;;;;;5.95;5.45;;;25.70;82.90;;;;;;5065453;28;20040;-73
2023/08/02 07:41:13;;;;;;;6.10;5.45;;;25.80;82.40;;;;;;5063316;28;20047;-73
2023/08/02 07:43:39;;;;;;;5.93;5.43;;;25.70;81.80;;;;;;5062799;28;20032;-73
2023/08/02 07:46:14;;;;;;;7.68;5.55;;;25.70;81.50;;;;;;5063491;28;20060;-75
2023/08/02 07:48:40;;;;;;;5.95;5.45;;;25.60;82.00;;;;;;5062926;28;20562;-75
2023/08/02 07:51:06;;;;;;;6.45;5.65;;;25.70;82.00;;;;;;5063515;28;20040;-70
2023/08/02 07:53:32;;;;;;;7.85;5.50;;;25.70;81.90;;;;;;5061999;28;20057;-73
2023/08/02 07:56:04;;;;;;;6.60;5.32;;;25.80;81.50;;;;;;5064832;28;20037;-73
2023/08/02 07:58:30;;;;;;;5.95;5.35;;;25.70;81.40;;;;;;5063137;28;20055;-75
2023/08/02 08:00:56;;;;;;;8.68;6.13;;;25.70;81.40;;;;;;5063838;28;20052;-74
2023/08/02 08:03:22;;;;;;;7.03;6.43;;;25.60;81.40;;;;;;5063129;28;20024;-72
2023/08/02 08:05:48;;;;;;;6.53;5.78;;;25.60;81.60;;;;;;5065112;28;20028;-73
2023/08/02 08:08:14;;;;;;;6.35;5.75;;;25.60;81.00;;;;;;5062608;28;20114;-73
2023/08/02 08:10:40;;;;;;;6.15;5.55;;;25.60;81.70;;;;;;5061520;28;20427;-73
2023/08/02 08:13:06;;;;;;;5.88;5.38;;;25.60;81.30;;;;;;5061335;28;20037;-75
2023/08/02 08:15:32;;;;;;;6.75;6.25;;;25.70;81.00;;;;;;5062478;28;20515;-73
2023/08/02 08:17:58;;;;;;;6.50;5.88;;;25.70;81.30;;;;;;5062292;28;20055;-74
2023/08/02 08:20:24;;;;;;;6.60;5.97;;;25.90;81.50;;;;;;5063387;28;20032;-73
2023/08/02 08:22:50;;;;;;;6.15;5.57;;;25.90;80.70;;;;;;5064340;28;20032;-74
2023/08/02 08:25:16;;;;;;;7.50;5.88;;;26.00;80.90;;;;;;5063968;28;20032;-73
2023/08/02 08:27:42;;;;;;;7.10;6.50;;;26.10;80.10;;;;;;5064209;28;20035;-73
2023/08/02 08:30:08;;;;;;;7.55;6.22;;;26.10;79.70;;;;;;5062419;28;20028;-73
2023/08/02 08:32:34;;;;;;;6.50;6.00;;;26.00;79.40;;;;;;5061874;28;20024;-74
2023/08/02 08:35:01;;;;;;;6.65;6.05;;;25.90;80.00;;;;;;5061293;28;20074;-73
2023/08/02 08:37:27;;;;;;;6.65;6.05;;;25.90;80.10;;;;;;5059309;28;20033;-73
2023/08/02 08:39:53;;;;;;;7.43;6.55;;;25.90;79.70;;;;;;5062615;28;20033;-73
2023/08/02 08:42:19;;;;;;;7.15;6.45;;;25.80;79.50;;;;;;5060803;28;20055;-72
2023/08/02 08:44:46;;;;;;;7.20;6.57;;;25.80;79.30;;;;;;5061539;28;20035;-70
2023/08/02 08:47:14;;;;;;;6.70;6.10;;;25.80;79.50;;;;;;5062220;28;20662;-69
2023/08/02 08:49:40;;;;;;;7.18;6.57;;;25.80;79.00;;;;;;5062136;28;20029;-70
2023/08/02 08:52:11;;;;;;;7.13;6.40;;;25.90;79.30;;;;;;5059539;28;20105;-70
2023/08/02 08:54:38;;;;;;;7.60;6.90;;;25.90;79.50;;;;;;5063049;28;20052;-70
2023/08/02 08:57:05;;;;;;;7.20;6.53;;;26.00;79.30;;;;;;5061238;28;20059;-70
2023/08/02 08:59:31;;;;;;;7.38;6.82;;;26.10;79.60;;;;;;5061985;28;20082;-71
2023/08/02 09:01:58;;;;;;;7.47;6.78;;;26.00;77.60;;;;;;5063139;28;20029;-71
2023/08/02 09:04:26;;;;;;;7.28;6.70;;;26.00;77.80;;;;;;5060038;28;20039;-71
2023/08/02 09:06:51;;;;;;;8.98;7.70;;;26.00;77.40;;;;;;5062186;28;20519;-72
2023/08/02 09:09:17;;;;;;;7.32;6.72;;;26.00;77.80;;;;;;5062175;28;20046;-75
2023/08/02 09:11:43;;;;;;;7.78;7.07;;;26.00;77.90;;;;;;5063376;28;20034;-70
2023/08/02 09:14:15;;;;;;;7.72;7.03;;;25.90;78.00;;;;;;5061391;28;20037;-71
2023/08/02 09:17:01;;;;;;;7.80;7.20;;;25.90;78.50;;;;;;5059946;28;20571;-71
2023/08/02 09:19:29;;;;;;;7.93;7.22;;;25.90;78.60;;;;;;5063793;28;20047;-70
2023/08/02 09:22:05;;;;;;;7.38;6.65;;;25.80;78.80;;;;;;5061005;28;20450;-70
2023/08/02 09:24:36;;;;;;;7.50;6.88;;;25.90;78.00;;;;;;5059919;28;20582;-69
2023/08/02 09:27:04;;;;;;;6.95;6.35;;;25.80;77.80;;;;;;5062705;28;20036;-71
2023/08/02 09:29:44;;;;;;;7.03;6.43;;;25.90;77.30;;;;;;5061081;28;20049;-71
2023/08/02 09:32:11;;;;;;;7.43;6.72;;;25.90;77.50;;;;;;5063429;28;20036;-71
2023/08/02 09:34:42;;;;;;;7.43;6.50;;;26.00;77.60;;;;;;5062420;28;20056;-71
2023/08/02 09:37:10;;;;;;;7.15;6.45;;;26.10;78.10;;;;;;5062366;28;20523;-73
2023/08/02 09:39:37;;;;;;;6.78;6.22;;;26.20;76.80;;;;;;5062947;28;20029;-73
2023/08/02 09:42:15;;;;;;;6.28;5.63;;;26.30;77.20;;;;;;5060904;28;20051;-73
2023/08/02 09:44:41;;;;;;;6.13;5.53;;;26.30;74.60;;;;;;5062113;28;20043;-73
2023/08/02 09:47:09;;;;;;;6.80;5.78;;;26.30;75.60;;;;;;5061582;28;20033;-69
2023/08/02 09:49:35;;;;;;;6.05;5.53;;;26.30;75.20;;;;;;5064467;28;20036;-70
2023/08/02 09:52:01;;;;;;;5.72;5.22;;;26.30;75.30;;;;;;5066814;28;20131;-70
2023/08/02 09:54:29;;;;;;;5.70;5.20;;;26.40;75.90;;;;;;5062495;28;20140;-71
2023/08/02 09:56:55;;;;;;;5.82;5.25;;;26.40;75.80;;;;;;5064974;28;20086;-71
2023/08/02 09:59:21;;;;;;;8.00;5.20;;;26.40;76.00;;;;;;5061780;28;20036;-71
2023/08/02 10:01:48;;;;;;;5.93;5.13;;;26.40;76.00;;;;;;5067014;28;20036;-71
2023/08/02 10:04:15;;;;;;;5.90;5.40;;;26.50;75.60;;;;;;5065530;28;20151;-70
2023/08/02 10:06:46;;;;;;;6.20;5.68;;;26.40;75.90;;;;;;5063621;28;20041;-70
2023/08/02 10:09:19;;;;;;;6.30;5.65;;;26.40;75.70;;;;;;5061853;28;20036;-69
2023/08/02 10:11:52;;;;;;;6.95;5.72;;;26.20;75.40;;;;;;5062634;28;20495;-69
2023/08/02 10:14:19;;;;;;;6.30;5.65;;;26.20;75.30;;;;;;5064095;28;20466;-70
2023/08/02 10:16:46;;;;;;;6.90;5.68;;;26.20;76.00;;;;;;5062880;28;20028;-69
2023/08/02 10:19:13;;;;;;;6.15;5.55;;;26.20;76.20;;;;;;5062796;28;20161;-70
2023/08/02 10:21:43;;;;;;;5.20;4.80;;;26.20;75.50;;;;;;5061534;28;20041;-69
2023/08/02 10:24:12;;;;;;;5.55;5.10;;;26.20;75.70;;;;;;5062864;28;20531;-70
2023/08/02 10:26:38;;;;;;;5.18;4.68;;;26.30;75.60;;;;;;5065305;28;21484;-69
2023/08/02 10:29:06;;;;;;;5.15;4.65;;;26.10;72.80;;;;;;5062828;28;20036;-69
2023/08/02 10:31:32;;;;;;;5.35;4.95;;;26.20;74.00;;;;;;5062423;28;20032;-69
2023/08/02 10:33:58;;;;;;;5.00;4.60;;;26.20;74.30;;;;;;5065464;28;20113;-70
2023/08/02 10:36:24;;;;;;;5.22;4.82;;;26.20;74.40;;;;;;5069771;28;20427;-69
2023/08/02 10:38:55;;;;;;;7.40;4.47;;;26.30;74.00;;;;;;5069120;28;20106;-69
2023/08/02 10:41:26;;;;;;;5.80;4.43;;;26.30;73.90;;;;;;5066846;28;20036;-69
2023/08/02 10:44:00;;;;;;;4.85;4.43;;;26.40;73.20;;;;;;5068540;28;20044;-69
2023/08/02 10:46:29;;;;;;;7.80;4.70;;;26.40;73.40;;;;;;5066744;28;20196;-69
2023/08/02 10:49:15;;;;;;;5.03;4.50;;;26.40;74.10;;;;;;5068956;28;20290;-69
2023/08/02 10:51:43;;;;;;;5.63;5.10;;;26.50;74.20;;;;;;5068161;28;20115;-69
2023/08/02 10:54:11;;;;;;;5.03;4.68;;;26.50;73.70;;;;;;5069075;28;20087;-69
2023/08/02 10:56:56;;;;;;;5.63;4.43;;;26.40;72.10;;;;;;5066251;28;20028;-70
2023/08/02 10:59:25;;;;;;;4.87;4.47;;;26.40;72.60;;;;;;5069919;28;20971;-69
2023/08/02 11:02:08;;;;;;;6.03;4.88;;;26.40;72.60;;;;;;5064231;28;20059;-69
2023/08/02 11:04:37;;;;;;;4.75;4.35;;;26.40;72.90;;;;;;5067321;28;20036;-69
2023/08/02 11:07:18;;;;;;;5.13;4.65;;;26.50;73.60;;;;;;5066762;28;20048;-69
2023/08/02 11:09:45;;;;;;;4.72;4.32;;;26.40;72.90;;;;;;5062321;28;20040;-69
2023/08/02 11:12:12;;;;;;;5.38;4.78;;;26.40;72.70;;;;;;5063119;28;20033;-69
2023/08/02 11:14:39;;;;;;;4.60;4.20;;;26.40;72.70;;;;;;5065635;28;20040;-69
2023/08/02 11:17:05;;;;;;;5.63;4.55;;;26.30;72.30;;;;;;5069896;28;20086;-69
2023/08/02 11:19:32;;;;;;;5.75;5.25;;;26.40;72.80;;;;;;5069259;28;20079;-69
2023/08/02 11:22:01;;;;;;;4.13;3.83;;;26.40;72.10;;;;;;5062639;28;20044;-69
2023/08/02 11:24:27;;;;;;;4.88;4.03;;;26.30;71.80;;;;;;5068685;28;20071;-69
2023/08/02 11:26:57;;;;;;;4.72;4.32;;;26.40;71.80;;;;;;5064698;28;20056;-68
2023/08/02 11:29:24;;;;;;;4.68;4.28;;;26.40;71.90;;;;;;5063321;28;20028;-69
2023/08/02 11:31:54;;;;;;;4.25;3.90;;;26.40;71.40;;;;;;5067121;28;20128;-69
2023/08/02 11:34:20;;;;;;;5.15;4.60;;;26.40;71.90;;;;;;5067057;28;20086;-69
2023/08/02 11:36:48;;;;;;;4.63;4.22;;;26.30;72.70;;;;;;5066401;28;20124;-69
2023/08/02 11:39:18;;;;;;;4.68;4.25;;;26.40;73.00;;;;;;5063523;28;20030;-69
2023/08/02 11:41:45;;;;;;;4.53;4.05;;;26.30;72.00;;;;;;5066647;28;20024;-69
2023/08/02 11:44:19;;;;;;;4.40;4.10;;;26.30;72.40;;;;;;5068574;28;20040;-69
2023/08/02 11:46:54;;;;;;;5.32;4.32;;;26.30;72.90;;;;;;5065261;28;20095;-69
2023/08/02 11:49:20;;;;;;;5.15;4.32;;;26.40;73.40;;;;;;5062458;28;20047;-69
2023/08/02 11:51:46;;;;;;;4.57;4.18;;;26.40;73.30;;;;;;5064889;28;20033;-69
2023/08/02 11:54:12;;;;;;;5.32;4.60;;;26.40;72.00;;;;;;5065682;28;20131;-67
2023/08/02 11:56:38;;;;;;;4.93;4.53;;;26.30;72.20;;;;;;5066856;28;20474;-68
2023/08/02 11:59:07;;;;;;;4.85;4.45;;;26.30;73.40;;;;;;5061843;28;20032;-69
2023/08/02 12:01:33;;;;;;;6.88;4.80;;;26.30;74.40;;;;;;5065473;28;20043;-69
2023/08/02 12:04:01;;;;;;;12.52;5.20;;;26.20;76.30;;;;;;5062859;28;20429;-70
2023/08/02 12:06:43;;;;;;;13.70;6.03;;;25.80;78.70;;;;;;5062754;28;20060;-70
2023/08/02 12:09:09;;;;;;;8.00;4.18;;;25.70;79.70;;;;;;5065861;28;20040;-72
2023/08/02 12:11:35;;;;;;;4.88;3.45;;;25.30;80.40;;;;;;5066777;28;20028;-70
2023/08/02 12:14:02;;;;;;;3.78;2.97;;;25.00;81.30;;;;;;5063669;28;20033;-72
2023/08/02 12:16:39;;;;;;;5.18;3.00;;;24.80;82.30;;;;;;5067549;28;20025;-71
2023/08/02 12:19:05;;;;;;;5.28;2.78;;;24.90;81.80;;;;;;5065095;28;20036;-71
2023/08/02 12:21:31;;;;;;;2.90;2.65;;;24.80;81.90;;;;;;5065176;28;20511;-71
2023/08/02 12:23:57;;;;;;;3.10;2.83;;;24.80;81.40;;;;;;5065525;28;20116;-72
2023/08/02 12:26:33;;;;;;;4.25;2.60;;;24.90;80.50;;;;;;5062425;28;20622;-73
2023/08/02 12:29:00;;;;;;;2.97;2.15;;;24.80;79.90;;;;;;5063672;28;20116;-71
2023/08/02 12:31:26;;;;;;;5.63;2.60;;;24.80;80.10;;;;;;5068805;28;20036;-72
2023/08/02 12:33:53;;;;;;;3.47;2.40;;;24.80;79.50;;;;;;5071874;28;20414;-71
2023/08/02 12:36:28;;;;;;;2.83;2.55;;;24.80;79.60;;;;;;5069616;28;20113;-71
2023/08/02 12:38:56;;;;;;;2.97;2.53;;;24.80;79.40;;;;;;5070794;28;20020;-72